sensor_id;sensor_type;location;lat;lon;timestamp;temperature;humidity
70368;DHT22;57789;53.868;10.728;2022-10-17T00:01:51;10.50;99.90
70368;DHT22;57789;53.868;10.728;2022-10-17T00:04:17;10.50;99.90
70368;DHT22;57789;53.868;10.728;2022-10-17T00:06:42;10.60;99.90
70368;DHT22;57789;53.868;10.728;2022-10-17T00:09:08;10.70;99.90
70368;DHT22;57789;53.868;10.728;2022-10-17T00:11:34;10.70;99.90
70368;DHT22;57789;53.868;10.728;2022-10-17T00:14:00;10.70;99.90
70368;DHT22;57789;53.868;10.728;2022-10-17T00:16:28;10.80;99.90
70368;DHT22;57789;53.868;10.728;2022-10-17T00:18:54;10.80;99.90
70368;DHT22;57789;53.868;10.728;2022-10-17T00:21:20;10.80;99.90
70368;DHT22;57789;53.868;10.728;2022-10-17T00:23:47;10.80;99.90
70368;DHT22;57789;53.868;10.728;2022-10-17T00:26:14;10.90;99.90
70368;DHT22;57789;53.868;10.728;2022-10-17T00:28:39;10.90;99.90
70368;DHT22;57789;53.868;10.728;2022-10-17T00:31:06;11.00;99.90
70368;DHT22;57789;53.868;10.728;2022-10-17T00:33:33;11.00;99.90
70368;DHT22;57789;53.868;10.728;2022-10-17T00:36:14;11.00;99.90
70368;DHT22;57789;53.868;10.728;2022-10-17T00:38:42;11.00;99.90
70368;DHT22;57789;53.868;10.728;2022-10-17T00:41:14;10.90;99.90
70368;DHT22;57789;53.868;10.728;2022-10-17T00:43:59;10.90;99.90
70368;DHT22;57789;53.868;10.728;2022-10-17T00:46:32;11.00;99.90
70368;DHT22;57789;53.868;10.728;2022-10-17T00:49:07;11.00;99.90
70368;DHT22;57789;53.868;10.728;2022-10-17T00:54:04;10.90;99.90
70368;DHT22;57789;53.868;10.728;2022-10-17T00:56:30;11.00;99.90
70368;DHT22;57789;53.868;10.728;2022-10-17T00:58:56;11.00;99.90
70368;DHT22;57789;53.868;10.728;2022-10-17T01:01:22;11.00;99.90
70368;DHT22;57789;53.868;10.728;2022-10-17T01:03:50;11.00;99.90
70368;DHT22;57789;53.868;10.728;2022-10-17T01:06:16;11.10;99.90
70368;DHT22;57789;53.868;10.728;2022-10-17T01:08:42;11.10;99.90
70368;DHT22;57789;53.868;10.728;2022-10-17T01:11:30;11.10;99.90
70368;DHT22;57789;53.868;10.728;2022-10-17T01:14:02;11.20;99.90
70368;DHT22;57789;53.868;10.728;2022-10-17T01:16:42;11.20;99.90
70368;DHT22;57789;53.868;10.728;2022-10-17T01:22:25;11.20;99.90
70368;DHT22;57789;53.868;10.728;2022-10-17T01:25:00;11.20;99.90
70368;DHT22;57789;53.868;10.728;2022-10-17T01:32:44;11.20;99.90
70368;DHT22;57789;53.868;10.728;2022-10-17T01:40:52;11.30;99.90
70368;DHT22;57789;53.868;10.728;2022-10-17T01:44:04;11.40;99.90
70368;DHT22;57789;53.868;10.728;2022-10-17T01:46:43;11.40;99.90
70368;DHT22;57789;53.868;10.728;2022-10-17T01:49:13;11.40;99.90
70368;DHT22;57789;53.868;10.728;2022-10-17T01:51:46;11.50;99.90
70368;DHT22;57789;53.868;10.728;2022-10-17T01:54:51;11.50;99.90
70368;DHT22;57789;53.868;10.728;2022-10-17T01:57:45;11.50;99.90
70368;DHT22;57789;53.868;10.728;2022-10-17T02:00:16;11.50;99.90
70368;DHT22;57789;53.868;10.728;2022-10-17T02:02:45;11.50;99.90
70368;DHT22;57789;53.868;10.728;2022-10-17T02:05:13;11.60;99.90
70368;DHT22;57789;53.868;10.728;2022-10-17T02:07:40;11.60;99.90
70368;DHT22;57789;53.868;10.728;2022-10-17T02:10:18;11.50;99.90
70368;DHT22;57789;53.868;10.728;2022-10-17T02:12:55;11.50;99.90
70368;DHT22;57789;53.868;10.728;2022-10-17T02:20:46;11.50;99.90
70368;DHT22;57789;53.868;10.728;2022-10-17T02:31:53;11.40;99.90
70368;DHT22;57789;53.868;10.728;2022-10-17T02:34:49;11.30;99.90
70368;DHT22;57789;53.868;10.728;2022-10-17T02:37:18;11.40;99.90
70368;DHT22;57789;53.868;10.728;2022-10-17T02:39:46;11.40;99.90
70368;DHT22;57789;53.868;10.728;2022-10-17T02:42:13;11.30;99.90
70368;DHT22;57789;53.868;10.728;2022-10-17T02:44:42;11.40;99.90
70368;DHT22;57789;53.868;10.728;2022-10-17T02:47:22;11.40;99.90
70368;DHT22;57789;53.868;10.728;2022-10-17T02:49:53;11.40;99.90
70368;DHT22;57789;53.868;10.728;2022-10-17T02:57:34;11.40;99.90
70368;DHT22;57789;53.868;10.728;2022-10-17T03:00:03;11.50;99.90
70368;DHT22;57789;53.868;10.728;2022-10-17T03:02:50;11.50;99.90
70368;DHT22;57789;53.868;10.728;2022-10-17T03:05:22;11.60;99.90
70368;DHT22;57789;53.868;10.728;2022-10-17T03:07:48;11.60;99.90
70368;DHT22;57789;53.868;10.728;2022-10-17T03:10:14;11.60;99.90
70368;DHT22;57789;53.868;10.728;2022-10-17T03:12:40;11.60;99.90
70368;DHT22;57789;53.868;10.728;2022-10-17T03:15:06;11.70;99.90
70368;DHT22;57789;53.868;10.728;2022-10-17T03:17:32;11.70;99.90
70368;DHT22;57789;53.868;10.728;2022-10-17T03:19:57;11.70;99.90
70368;DHT22;57789;53.868;10.728;2022-10-17T03:22:23;11.70;99.90
70368;DHT22;57789;53.868;10.728;2022-10-17T03:24:49;11.80;99.90
70368;DHT22;57789;53.868;10.728;2022-10-17T03:27:15;11.80;99.90
70368;DHT22;57789;53.868;10.728;2022-10-17T03:29:40;11.80;99.90
70368;DHT22;57789;53.868;10.728;2022-10-17T03:32:06;11.80;99.90
70368;DHT22;57789;53.868;10.728;2022-10-17T03:34:32;11.90;99.90
70368;DHT22;57789;53.868;10.728;2022-10-17T03:36:58;11.90;99.90
70368;DHT22;57789;53.868;10.728;2022-10-17T03:39:23;11.90;99.90
70368;DHT22;57789;53.868;10.728;2022-10-17T03:41:49;11.90;99.90
70368;DHT22;57789;53.868;10.728;2022-10-17T03:44:15;11.90;99.90
70368;DHT22;57789;53.868;10.728;2022-10-17T03:46:41;12.00;99.90
70368;DHT22;57789;53.868;10.728;2022-10-17T03:49:08;12.00;99.90
70368;DHT22;57789;53.868;10.728;2022-10-17T03:51:34;12.00;99.90
70368;DHT22;57789;53.868;10.728;2022-10-17T03:54:00;12.00;99.90
70368;DHT22;57789;53.868;10.728;2022-10-17T03:56:26;12.00;99.90
70368;DHT22;57789;53.868;10.728;2022-10-17T03:58:53;12.00;99.90
70368;DHT22;57789;53.868;10.728;2022-10-17T04:01:19;12.00;99.90
70368;DHT22;57789;53.868;10.728;2022-10-17T04:03:49;12.00;99.90
70368;DHT22;57789;53.868;10.728;2022-10-17T04:06:15;12.10;99.90
70368;DHT22;57789;53.868;10.728;2022-10-17T04:08:40;12.10;99.90
70368;DHT22;57789;53.868;10.728;2022-10-17T04:11:09;12.00;99.90
70368;DHT22;57789;53.868;10.728;2022-10-17T04:13:35;12.00;99.90
70368;DHT22;57789;53.868;10.728;2022-10-17T04:16:07;12.00;99.90
70368;DHT22;57789;53.868;10.728;2022-10-17T04:18:33;12.00;99.90
70368;DHT22;57789;53.868;10.728;2022-10-17T04:21:05;12.00;99.90
70368;DHT22;57789;53.868;10.728;2022-10-17T04:23:32;12.10;99.90
70368;DHT22;57789;53.868;10.728;2022-10-17T04:25:59;12.10;99.90
70368;DHT22;57789;53.868;10.728;2022-10-17T04:28:26;12.10;99.90
70368;DHT22;57789;53.868;10.728;2022-10-17T04:31:06;12.10;99.90
70368;DHT22;57789;53.868;10.728;2022-10-17T04:33:34;12.10;99.90
70368;DHT22;57789;53.868;10.728;2022-10-17T04:36:01;12.10;99.90
70368;DHT22;57789;53.868;10.728;2022-10-17T04:38:27;12.00;99.90
70368;DHT22;57789;53.868;10.728;2022-10-17T04:40:53;12.00;99.90
70368;DHT22;57789;53.868;10.728;2022-10-17T04:43:19;11.90;99.90
70368;DHT22;57789;53.868;10.728;2022-10-17T04:45:45;11.90;99.90
70368;DHT22;57789;53.868;10.728;2022-10-17T04:48:10;11.80;99.90
70368;DHT22;57789;53.868;10.728;2022-10-17T04:50:36;11.80;99.90
70368;DHT22;57789;53.868;10.728;2022-10-17T04:53:02;11.80;99.90
70368;DHT22;57789;53.868;10.728;2022-10-17T04:55:27;11.70;99.90
70368;DHT22;57789;53.868;10.728;2022-10-17T04:57:53;11.70;99.90
70368;DHT22;57789;53.868;10.728;2022-10-17T05:00:19;11.70;99.90
70368;DHT22;57789;53.868;10.728;2022-10-17T05:02:44;11.70;99.90
70368;DHT22;57789;53.868;10.728;2022-10-17T05:05:10;11.60;99.90
70368;DHT22;57789;53.868;10.728;2022-10-17T05:07:39;11.70;99.90
70368;DHT22;57789;53.868;10.728;2022-10-17T05:10:05;11.60;99.90
70368;DHT22;57789;53.868;10.728;2022-10-17T05:12:31;11.60;99.90
70368;DHT22;57789;53.868;10.728;2022-10-17T05:14:57;11.50;99.90
70368;DHT22;57789;53.868;10.728;2022-10-17T05:17:23;11.50;99.90
70368;DHT22;57789;53.868;10.728;2022-10-17T05:19:49;11.50;99.90
70368;DHT22;57789;53.868;10.728;2022-10-17T05:22:14;11.40;99.90
70368;DHT22;57789;53.868;10.728;2022-10-17T05:24:40;11.30;99.90
70368;DHT22;57789;53.868;10.728;2022-10-17T05:27:06;11.40;99.90
70368;DHT22;57789;53.868;10.728;2022-10-17T05:29:32;11.30;99.90
70368;DHT22;57789;53.868;10.728;2022-10-17T05:31:58;11.30;99.90
70368;DHT22;57789;53.868;10.728;2022-10-17T05:34:24;11.40;99.90
70368;DHT22;57789;53.868;10.728;2022-10-17T05:36:49;11.40;99.90
70368;DHT22;57789;53.868;10.728;2022-10-17T05:39:18;11.40;99.90
70368;DHT22;57789;53.868;10.728;2022-10-17T05:41:45;11.30;99.90
70368;DHT22;57789;53.868;10.728;2022-10-17T05:44:11;11.30;99.90
70368;DHT22;57789;53.868;10.728;2022-10-17T05:46:40;11.30;99.90
70368;DHT22;57789;53.868;10.728;2022-10-17T05:49:08;11.30;99.90
70368;DHT22;57789;53.868;10.728;2022-10-17T05:51:34;11.30;99.90
70368;DHT22;57789;53.868;10.728;2022-10-17T05:54:00;11.20;99.90
70368;DHT22;57789;53.868;10.728;2022-10-17T05:56:26;11.20;99.90
70368;DHT22;57789;53.868;10.728;2022-10-17T05:58:52;11.20;99.90
70368;DHT22;57789;53.868;10.728;2022-10-17T06:01:17;11.20;99.90
70368;DHT22;57789;53.868;10.728;2022-10-17T06:03:43;11.20;99.90
70368;DHT22;57789;53.868;10.728;2022-10-17T06:06:11;11.20;99.90
70368;DHT22;57789;53.868;10.728;2022-10-17T06:08:37;11.20;99.90
70368;DHT22;57789;53.868;10.728;2022-10-17T06:11:03;11.30;99.90
70368;DHT22;57789;53.868;10.728;2022-10-17T06:13:29;11.30;99.90
70368;DHT22;57789;53.868;10.728;2022-10-17T06:15:55;11.30;99.90
70368;DHT22;57789;53.868;10.728;2022-10-17T06:18:21;11.30;99.90
70368;DHT22;57789;53.868;10.728;2022-10-17T06:20:47;11.30;99.90
70368;DHT22;57789;53.868;10.728;2022-10-17T06:23:13;11.40;99.90
70368;DHT22;57789;53.868;10.728;2022-10-17T06:25:39;11.40;99.90
70368;DHT22;57789;53.868;10.728;2022-10-17T06:28:04;11.40;99.90
70368;DHT22;57789;53.868;10.728;2022-10-17T06:30:30;11.40;99.90
70368;DHT22;57789;53.868;10.728;2022-10-17T06:32:56;11.40;99.90
70368;DHT22;57789;53.868;10.728;2022-10-17T06:35:21;11.50;99.90
70368;DHT22;57789;53.868;10.728;2022-10-17T06:37:47;11.60;99.90
70368;DHT22;57789;53.868;10.728;2022-10-17T06:40:13;11.60;99.90
70368;DHT22;57789;53.868;10.728;2022-10-17T06:42:41;11.60;99.90
70368;DHT22;57789;53.868;10.728;2022-10-17T06:45:08;11.60;99.90
70368;DHT22;57789;53.868;10.728;2022-10-17T06:47:36;11.70;99.90
70368;DHT22;57789;53.868;10.728;2022-10-17T06:50:02;11.80;99.90
70368;DHT22;57789;53.868;10.728;2022-10-17T06:52:30;11.80;99.90
70368;DHT22;57789;53.868;10.728;2022-10-17T06:54:56;11.90;99.90
70368;DHT22;57789;53.868;10.728;2022-10-17T06:57:22;12.00;99.90
70368;DHT22;57789;53.868;10.728;2022-10-17T06:59:48;12.00;99.90
70368;DHT22;57789;53.868;10.728;2022-10-17T07:02:13;12.10;99.90
70368;DHT22;57789;53.868;10.728;2022-10-17T07:04:39;12.10;99.90
70368;DHT22;57789;53.868;10.728;2022-10-17T07:07:05;12.20;99.90
70368;DHT22;57789;53.868;10.728;2022-10-17T07:09:31;12.30;99.90
70368;DHT22;57789;53.868;10.728;2022-10-17T07:11:58;12.30;99.90
70368;DHT22;57789;53.868;10.728;2022-10-17T07:14:24;12.40;99.90
70368;DHT22;57789;53.868;10.728;2022-10-17T07:16:57;12.40;99.90
70368;DHT22;57789;53.868;10.728;2022-10-17T07:19:23;12.50;99.90
70368;DHT22;57789;53.868;10.728;2022-10-17T07:21:50;12.60;99.90
70368;DHT22;57789;53.868;10.728;2022-10-17T07:24:15;12.60;99.90
70368;DHT22;57789;53.868;10.728;2022-10-17T07:26:41;12.70;99.90
70368;DHT22;57789;53.868;10.728;2022-10-17T07:29:08;12.80;99.90
70368;DHT22;57789;53.868;10.728;2022-10-17T07:31:34;13.00;99.90
70368;DHT22;57789;53.868;10.728;2022-10-17T07:34:00;13.10;99.90
70368;DHT22;57789;53.868;10.728;2022-10-17T07:36:25;13.20;99.90
70368;DHT22;57789;53.868;10.728;2022-10-17T07:38:51;13.30;99.90
70368;DHT22;57789;53.868;10.728;2022-10-17T07:41:17;13.40;99.90
70368;DHT22;57789;53.868;10.728;2022-10-17T07:43:44;13.60;99.90
70368;DHT22;57789;53.868;10.728;2022-10-17T07:46:10;13.70;99.90
70368;DHT22;57789;53.868;10.728;2022-10-17T07:48:36;13.80;99.90
70368;DHT22;57789;53.868;10.728;2022-10-17T07:51:04;13.90;99.90
70368;DHT22;57789;53.868;10.728;2022-10-17T07:53:30;14.10;99.90
70368;DHT22;57789;53.868;10.728;2022-10-17T07:55:57;14.10;99.90
70368;DHT22;57789;53.868;10.728;2022-10-17T07:58:23;14.20;99.90
70368;DHT22;57789;53.868;10.728;2022-10-17T08:00:50;14.30;99.90
70368;DHT22;57789;53.868;10.728;2022-10-17T08:03:16;14.30;99.90
70368;DHT22;57789;53.868;10.728;2022-10-17T08:05:41;14.50;99.90
70368;DHT22;57789;53.868;10.728;2022-10-17T08:08:10;14.60;99.90
70368;DHT22;57789;53.868;10.728;2022-10-17T08:10:36;14.70;99.90
70368;DHT22;57789;53.868;10.728;2022-10-17T08:13:02;14.80;99.90
70368;DHT22;57789;53.868;10.728;2022-10-17T08:15:27;15.00;99.90
70368;DHT22;57789;53.868;10.728;2022-10-17T08:17:53;15.00;99.90
70368;DHT22;57789;53.868;10.728;2022-10-17T08:20:20;15.10;99.90
70368;DHT22;57789;53.868;10.728;2022-10-17T08:22:55;15.20;99.90
70368;DHT22;57789;53.868;10.728;2022-10-17T08:25:21;15.30;99.90
70368;DHT22;57789;53.868;10.728;2022-10-17T08:27:47;15.40;99.90
70368;DHT22;57789;53.868;10.728;2022-10-17T08:30:13;15.50;99.90
70368;DHT22;57789;53.868;10.728;2022-10-17T08:32:38;15.60;99.90
70368;DHT22;57789;53.868;10.728;2022-10-17T08:35:05;15.80;99.90
70368;DHT22;57789;53.868;10.728;2022-10-17T08:37:30;15.90;99.90
70368;DHT22;57789;53.868;10.728;2022-10-17T08:39:56;16.10;99.90
70368;DHT22;57789;53.868;10.728;2022-10-17T08:45:50;16.20;99.90
70368;DHT22;57789;53.868;10.728;2022-10-17T08:48:22;16.30;99.90
70368;DHT22;57789;53.868;10.728;2022-10-17T08:50:52;16.30;99.90
70368;DHT22;57789;53.868;10.728;2022-10-17T08:53:34;16.30;99.90
70368;DHT22;57789;53.868;10.728;2022-10-17T08:56:06;16.30;99.90
70368;DHT22;57789;53.868;10.728;2022-10-17T08:58:37;16.30;99.90
70368;DHT22;57789;53.868;10.728;2022-10-17T09:01:05;16.30;99.90
70368;DHT22;57789;53.868;10.728;2022-10-17T09:20:07;16.90;99.90
70368;DHT22;57789;53.868;10.728;2022-10-17T09:23:01;16.90;99.90
70368;DHT22;57789;53.868;10.728;2022-10-17T09:25:39;16.80;99.90
70368;DHT22;57789;53.868;10.728;2022-10-17T09:33:08;17.10;99.90
70368;DHT22;57789;53.868;10.728;2022-10-17T09:35:35;17.10;99.90
70368;DHT22;57789;53.868;10.728;2022-10-17T09:38:01;17.20;99.90
70368;DHT22;57789;53.868;10.728;2022-10-17T09:40:32;17.40;99.90
70368;DHT22;57789;53.868;10.728;2022-10-17T09:43:00;17.40;99.90
70368;DHT22;57789;53.868;10.728;2022-10-17T09:45:27;17.40;99.90
70368;DHT22;57789;53.868;10.728;2022-10-17T09:48:13;17.40;99.90
70368;DHT22;57789;53.868;10.728;2022-10-17T09:50:44;17.50;99.90
70368;DHT22;57789;53.868;10.728;2022-10-17T09:55:44;17.80;99.90
70368;DHT22;57789;53.868;10.728;2022-10-17T09:58:12;17.90;99.90
70368;DHT22;57789;53.868;10.728;2022-10-17T10:00:43;18.00;99.90
70368;DHT22;57789;53.868;10.728;2022-10-17T10:03:21;18.10;99.90
70368;DHT22;57789;53.868;10.728;2022-10-17T10:06:25;18.20;99.90
70368;DHT22;57789;53.868;10.728;2022-10-17T10:08:54;18.30;99.90
70368;DHT22;57789;53.868;10.728;2022-10-17T10:14:27;18.40;99.90
70368;DHT22;57789;53.868;10.728;2022-10-17T10:16:53;18.50;99.90
70368;DHT22;57789;53.868;10.728;2022-10-17T10:19:29;18.50;99.90
70368;DHT22;57789;53.868;10.728;2022-10-17T10:22:00;18.50;99.90
70368;DHT22;57789;53.868;10.728;2022-10-17T10:24:27;18.50;99.90
70368;DHT22;57789;53.868;10.728;2022-10-17T10:26:55;18.60;99.90
70368;DHT22;57789;53.868;10.728;2022-10-17T10:32:26;18.80;99.90
70368;DHT22;57789;53.868;10.728;2022-10-17T10:35:20;19.00;99.90
70368;DHT22;57789;53.868;10.728;2022-10-17T10:37:53;19.10;99.90
70368;DHT22;57789;53.868;10.728;2022-10-17T10:40:27;19.20;99.90
70368;DHT22;57789;53.868;10.728;2022-10-17T10:43:32;19.30;99.90
70368;DHT22;57789;53.868;10.728;2022-10-17T10:45:59;19.50;99.90
70368;DHT22;57789;53.868;10.728;2022-10-17T10:48:29;19.60;99.90
70368;DHT22;57789;53.868;10.728;2022-10-17T10:51:13;19.60;99.90
70368;DHT22;57789;53.868;10.728;2022-10-17T10:54:33;19.70;99.90
70368;DHT22;57789;53.868;10.728;2022-10-17T10:56:45;19.70;99.90
70368;DHT22;57789;53.868;10.728;2022-10-17T10:59:23;19.80;99.90
70368;DHT22;57789;53.868;10.728;2022-10-17T11:02:00;19.70;99.90
70368;DHT22;57789;53.868;10.728;2022-10-17T11:04:43;19.70;99.90
70368;DHT22;57789;53.868;10.728;2022-10-17T11:07:31;19.70;99.90
70368;DHT22;57789;53.868;10.728;2022-10-17T11:10:13;19.80;99.90
70368;DHT22;57789;53.868;10.728;2022-10-17T11:12:49;19.80;99.90
70368;DHT22;57789;53.868;10.728;2022-10-17T11:15:19;19.90;99.90
70368;DHT22;57789;53.868;10.728;2022-10-17T11:17:58;20.00;99.90
70368;DHT22;57789;53.868;10.728;2022-10-17T11:20:46;20.10;99.90
70368;DHT22;57789;53.868;10.728;2022-10-17T11:23:20;20.20;99.90
70368;DHT22;57789;53.868;10.728;2022-10-17T11:25:51;20.30;99.90
70368;DHT22;57789;53.868;10.728;2022-10-17T11:28:19;20.30;99.90
70368;DHT22;57789;53.868;10.728;2022-10-17T11:33:27;20.20;99.90
70368;DHT22;57789;53.868;10.728;2022-10-17T11:35:58;20.30;99.90
70368;DHT22;57789;53.868;10.728;2022-10-17T11:39:05;20.20;99.90
70368;DHT22;57789;53.868;10.728;2022-10-17T11:41:57;20.10;99.90
70368;DHT22;57789;53.868;10.728;2022-10-17T11:44:40;20.10;99.90
70368;DHT22;57789;53.868;10.728;2022-10-17T11:47:30;20.00;99.90
70368;DHT22;57789;53.868;10.728;2022-10-17T11:50:22;20.00;99.90
70368;DHT22;57789;53.868;10.728;2022-10-17T11:53:00;19.90;99.90
70368;DHT22;57789;53.868;10.728;2022-10-17T11:55:30;19.90;99.90
70368;DHT22;57789;53.868;10.728;2022-10-17T11:58:17;19.90;99.90
70368;DHT22;57789;53.868;10.728;2022-10-17T12:01:23;20.00;99.90
70368;DHT22;57789;53.868;10.728;2022-10-17T12:09:31;20.30;99.90
70368;DHT22;57789;53.868;10.728;2022-10-17T12:12:00;20.30;99.90
70368;DHT22;57789;53.868;10.728;2022-10-17T12:16:59;20.40;99.90
70368;DHT22;57789;53.868;10.728;2022-10-17T12:19:30;20.40;99.90
70368;DHT22;57789;53.868;10.728;2022-10-17T12:22:43;20.20;99.90
70368;DHT22;57789;53.868;10.728;2022-10-17T12:25:02;20.20;99.90
70368;DHT22;57789;53.868;10.728;2022-10-17T12:27:40;20.30;99.90
70368;DHT22;57789;53.868;10.728;2022-10-17T12:30:29;20.20;99.90
70368;DHT22;57789;53.868;10.728;2022-10-17T12:32:59;20.10;99.90
70368;DHT22;57789;53.868;10.728;2022-10-17T12:35:27;20.00;99.90
70368;DHT22;57789;53.868;10.728;2022-10-17T12:45:51;19.60;99.90
70368;DHT22;57789;53.868;10.728;2022-10-17T12:51:20;19.60;99.90
70368;DHT22;57789;53.868;10.728;2022-10-17T12:53:57;19.50;99.90
70368;DHT22;57789;53.868;10.728;2022-10-17T12:56:50;19.40;99.90
70368;DHT22;57789;53.868;10.728;2022-10-17T12:59:24;19.40;99.90
70368;DHT22;57789;53.868;10.728;2022-10-17T13:01:53;19.40;99.90
70368;DHT22;57789;53.868;10.728;2022-10-17T13:04:20;19.40;99.90
70368;DHT22;57789;53.868;10.728;2022-10-17T13:06:48;19.30;99.90
70368;DHT22;57789;53.868;10.728;2022-10-17T13:11:48;19.30;99.90
70368;DHT22;57789;53.868;10.728;2022-10-17T13:14:16;19.30;99.90
70368;DHT22;57789;53.868;10.728;2022-10-17T13:17:00;19.30;99.90
70368;DHT22;57789;53.868;10.728;2022-10-17T13:19:46;19.30;99.90
70368;DHT22;57789;53.868;10.728;2022-10-17T13:22:24;19.30;99.90
70368;DHT22;57789;53.868;10.728;2022-10-17T13:24:51;19.30;99.90
70368;DHT22;57789;53.868;10.728;2022-10-17T13:27:30;19.30;99.90
70368;DHT22;57789;53.868;10.728;2022-10-17T13:29:58;19.30;99.90
70368;DHT22;57789;53.868;10.728;2022-10-17T13:32:26;19.30;99.90
70368;DHT22;57789;53.868;10.728;2022-10-17T13:35:26;19.20;99.90
70368;DHT22;57789;53.868;10.728;2022-10-17T13:37:53;19.20;99.90
70368;DHT22;57789;53.868;10.728;2022-10-17T13:40:25;19.20;99.90
70368;DHT22;57789;53.868;10.728;2022-10-17T13:42:54;19.20;99.90
70368;DHT22;57789;53.868;10.728;2022-10-17T13:45:32;19.20;99.90
70368;DHT22;57789;53.868;10.728;2022-10-17T13:48:03;19.20;99.90
70368;DHT22;57789;53.868;10.728;2022-10-17T13:56:03;19.10;99.90
70368;DHT22;57789;53.868;10.728;2022-10-17T13:58:38;19.00;99.90
70368;DHT22;57789;53.868;10.728;2022-10-17T14:01:05;18.80;99.90
70368;DHT22;57789;53.868;10.728;2022-10-17T14:03:31;18.40;99.90
70368;DHT22;57789;53.868;10.728;2022-10-17T14:08:35;17.70;99.90
70368;DHT22;57789;53.868;10.728;2022-10-17T14:11:07;17.50;99.90
70368;DHT22;57789;53.868;10.728;2022-10-17T14:13:40;17.50;99.90
70368;DHT22;57789;53.868;10.728;2022-10-17T14:16:06;17.30;99.90
70368;DHT22;57789;53.868;10.728;2022-10-17T14:18:35;17.30;99.90
70368;DHT22;57789;53.868;10.728;2022-10-17T14:21:01;17.20;99.90
70368;DHT22;57789;53.868;10.728;2022-10-17T14:23:37;17.20;99.90
70368;DHT22;57789;53.868;10.728;2022-10-17T14:26:17;17.20;99.90
70368;DHT22;57789;53.868;10.728;2022-10-17T14:28:47;17.20;99.90
70368;DHT22;57789;53.868;10.728;2022-10-17T14:31:34;17.20;99.90
70368;DHT22;57789;53.868;10.728;2022-10-17T14:34:02;17.20;99.90
70368;DHT22;57789;53.868;10.728;2022-10-17T14:36:34;17.10;99.90
70368;DHT22;57789;53.868;10.728;2022-10-17T14:39:02;17.10;99.90
70368;DHT22;57789;53.868;10.728;2022-10-17T14:41:32;17.10;99.90
70368;DHT22;57789;53.868;10.728;2022-10-17T14:44:04;17.00;99.90
70368;DHT22;57789;53.868;10.728;2022-10-17T14:46:33;17.00;99.90
70368;DHT22;57789;53.868;10.728;2022-10-17T14:49:05;17.00;99.90
70368;DHT22;57789;53.868;10.728;2022-10-17T14:51:32;17.00;99.90
70368;DHT22;57789;53.868;10.728;2022-10-17T14:54:22;17.00;99.90
70368;DHT22;57789;53.868;10.728;2022-10-17T14:56:50;16.90;99.90
70368;DHT22;57789;53.868;10.728;2022-10-17T14:59:17;16.90;99.90
70368;DHT22;57789;53.868;10.728;2022-10-17T15:01:48;16.90;99.90
70368;DHT22;57789;53.868;10.728;2022-10-17T15:04:14;17.00;99.90
70368;DHT22;57789;53.868;10.728;2022-10-17T15:06:40;16.90;99.90
70368;DHT22;57789;53.868;10.728;2022-10-17T15:09:06;16.90;99.90
70368;DHT22;57789;53.868;10.728;2022-10-17T15:11:32;16.90;99.90
70368;DHT22;57789;53.868;10.728;2022-10-17T15:13:57;16.90;99.90
70368;DHT22;57789;53.868;10.728;2022-10-17T15:16:25;16.90;99.90
70368;DHT22;57789;53.868;10.728;2022-10-17T15:18:52;16.90;99.90
70368;DHT22;57789;53.868;10.728;2022-10-17T15:21:20;16.90;99.90
70368;DHT22;57789;53.868;10.728;2022-10-17T15:23:47;16.80;99.90
70368;DHT22;57789;53.868;10.728;2022-10-17T15:26:24;16.90;99.90
70368;DHT22;57789;53.868;10.728;2022-10-17T15:28:51;16.90;99.90
70368;DHT22;57789;53.868;10.728;2022-10-17T15:31:19;16.80;99.90
70368;DHT22;57789;53.868;10.728;2022-10-17T15:33:46;16.80;99.90
70368;DHT22;57789;53.868;10.728;2022-10-17T15:36:27;16.80;99.90
70368;DHT22;57789;53.868;10.728;2022-10-17T15:39:01;16.80;99.90
70368;DHT22;57789;53.868;10.728;2022-10-17T15:41:29;16.80;99.90
70368;DHT22;57789;53.868;10.728;2022-10-17T15:43:55;16.80;99.90
70368;DHT22;57789;53.868;10.728;2022-10-17T15:46:29;16.80;99.90
70368;DHT22;57789;53.868;10.728;2022-10-17T15:49:01;16.80;99.90
70368;DHT22;57789;53.868;10.728;2022-10-17T15:51:27;16.80;99.90
70368;DHT22;57789;53.868;10.728;2022-10-17T15:53:53;16.80;99.90
70368;DHT22;57789;53.868;10.728;2022-10-17T15:56:21;16.80;99.90
70368;DHT22;57789;53.868;10.728;2022-10-17T15:58:47;16.80;99.90
70368;DHT22;57789;53.868;10.728;2022-10-17T16:01:23;16.80;99.90
70368;DHT22;57789;53.868;10.728;2022-10-17T16:03:50;16.80;99.90
70368;DHT22;57789;53.868;10.728;2022-10-17T16:06:24;16.80;99.90
70368;DHT22;57789;53.868;10.728;2022-10-17T16:08:51;16.70;99.90
70368;DHT22;57789;53.868;10.728;2022-10-17T16:13:53;16.70;99.90
70368;DHT22;57789;53.868;10.728;2022-10-17T16:16:19;16.70;99.90
70368;DHT22;57789;53.868;10.728;2022-10-17T16:18:47;16.70;99.90
70368;DHT22;57789;53.868;10.728;2022-10-17T16:21:13;16.70;99.90
70368;DHT22;57789;53.868;10.728;2022-10-17T16:23:40;16.70;99.90
70368;DHT22;57789;53.868;10.728;2022-10-17T16:26:06;16.70;99.90
70368;DHT22;57789;53.868;10.728;2022-10-17T16:28:33;16.70;99.90
70368;DHT22;57789;53.868;10.728;2022-10-17T16:30:58;16.70;99.90
70368;DHT22;57789;53.868;10.728;2022-10-17T16:33:24;16.70;99.90
70368;DHT22;57789;53.868;10.728;2022-10-17T16:35:50;16.70;99.90
70368;DHT22;57789;53.868;10.728;2022-10-17T16:38:16;16.70;99.90
70368;DHT22;57789;53.868;10.728;2022-10-17T16:40:43;16.70;99.90
70368;DHT22;57789;53.868;10.728;2022-10-17T16:43:14;16.70;99.90
70368;DHT22;57789;53.868;10.728;2022-10-17T16:45:40;16.60;99.90
70368;DHT22;57789;53.868;10.728;2022-10-17T16:48:07;16.70;99.90
70368;DHT22;57789;53.868;10.728;2022-10-17T16:50:36;16.60;99.90
70368;DHT22;57789;53.868;10.728;2022-10-17T16:53:02;16.60;99.90
70368;DHT22;57789;53.868;10.728;2022-10-17T16:55:31;16.60;99.90
70368;DHT22;57789;53.868;10.728;2022-10-17T16:58:05;16.60;99.90
70368;DHT22;57789;53.868;10.728;2022-10-17T17:00:31;16.60;99.90
70368;DHT22;57789;53.868;10.728;2022-10-17T17:02:57;16.50;99.90
70368;DHT22;57789;53.868;10.728;2022-10-17T17:05:22;16.50;99.90
70368;DHT22;57789;53.868;10.728;2022-10-17T17:07:48;16.50;99.90
70368;DHT22;57789;53.868;10.728;2022-10-17T17:10:13;16.50;99.90
70368;DHT22;57789;53.868;10.728;2022-10-17T17:12:39;16.50;99.90
70368;DHT22;57789;53.868;10.728;2022-10-17T17:15:05;16.40;99.90
70368;DHT22;57789;53.868;10.728;2022-10-17T17:17:31;16.40;99.90
70368;DHT22;57789;53.868;10.728;2022-10-17T17:19:56;16.50;99.90